Marion Fathers, Massachusetts
Current Conditions -  °F | °C
As of 4:54 PM on Friday 19 Dec 2014 (Local Time) from KPSF Reporting Station
Overcast Overcast  
Wind Chill: 14°   Ceiling: 1600
Heat Index: 25°   Visibility: 10mi
Dew Point: 19°   Wind: 12mph
Humidity: 78%   Direction: 300°WNW
Pressure: 30.03"   Gusts: NA
Location:  42.2878°N, 73.3208°W
Report Text: KPSF 192154Z AUTO 30010KT 10SM OVC016 M04/M07 A3003 RMK AO2 SLP183 T10391072
Loading
Personal Weather Stations






























Interactive Weather Map New forecast layout! Learn more

10-Day Weather Forecast

Advertisements
Track Severe Weather on mobile